Terminal Aerodrome Forecast
Issued by NWS Charleston, WV

Current Version | Previous Version | Text Only | Print | Product List | Glossary Off
Versions: 1 2 3 4 5 6 7 8 9 10 11 12 13 14 15 16 17 18 19 20 21 22 23 24 25 26 27 28

000
FTUS41 KRLX 131959 AAA
TAFEKN
TAF AMD
KEKN 131959Z 1320/1418 36004KT P6SM BKN006
     FM132200 00000KT P6SM OVC015
     FM140300 00000KT 4SM -RA OVC020
     FM140600 13005KT 2SM -RA OVC008
     FM141300 13005KT 2SM -RA OVC004=

USA.gov is the U.S. government's official web portal to all federal, state and local government web resources and services.